createdAt,value
2017-11-04T00:00:58.958Z,987.97
2017-11-04T00:01:58.955Z,987.95
2017-11-04T00:02:58.949Z,987.94
2017-11-04T00:03:58.946Z,987.99
2017-11-04T00:04:58.945Z,987.96
2017-11-04T00:05:58.932Z,987.98
2017-11-04T00:06:58.930Z,987.99
2017-11-04T00:07:58.923Z,987.97
2017-11-04T00:08:58.916Z,988
2017-11-04T00:09:58.910Z,988.01
2017-11-04T00:10:58.906Z,988.02
2017-11-04T00:11:58.899Z,987.99
2017-11-04T00:12:58.896Z,988.01
2017-11-04T00:13:58.941Z,988.01
2017-11-04T00:14:58.884Z,988.01
2017-11-04T00:15:58.883Z,988.01
2017-11-04T00:16:58.871Z,987.98
2017-11-04T00:17:58.868Z,988.02
2017-11-04T00:18:58.862Z,988
2017-11-04T00:19:58.864Z,987.97
2017-11-04T00:20:58.851Z,988
2017-11-04T00:21:58.847Z,988.03
2017-11-04T00:22:58.843Z,988.01
2017-11-04T00:23:58.834Z,987.97
2017-11-04T00:24:58.832Z,988
2017-11-04T00:25:58.836Z,987.97
2017-11-04T00:26:58.996Z,987.97
2017-11-04T00:27:58.822Z,987.97
2017-11-04T00:28:58.808Z,987.97
2017-11-04T00:29:58.801Z,987.99
2017-11-04T00:30:58.796Z,987.95
2017-11-04T00:31:58.799Z,987.97
2017-11-04T00:32:58.798Z,988.02
2017-11-04T00:33:58.780Z,987.99
2017-11-04T00:34:58.775Z,987.98
2017-11-04T00:35:58.769Z,987.98
2017-11-04T00:36:58.763Z,987.99
2017-11-04T00:37:58.757Z,988
2017-11-04T00:38:58.755Z,987.96
2017-11-04T00:39:58.747Z,988
2017-11-04T00:40:58.743Z,988
2017-11-04T00:41:58.752Z,987.99
2017-11-04T00:42:58.741Z,987.98
2017-11-04T00:43:58.725Z,987.97
2017-11-04T00:44:58.725Z,987.96
2017-11-04T00:45:58.718Z,987.98
2017-11-04T00:46:58.715Z,987.95
2017-11-04T00:47:58.703Z,987.97
2017-11-04T00:48:58.696Z,987.91
2017-11-04T00:49:58.691Z,987.92
2017-11-04T00:50:58.686Z,987.9
2017-11-04T00:51:58.687Z,987.88
2017-11-04T00:52:58.675Z,987.9
2017-11-04T00:53:58.668Z,987.88
2017-11-04T00:54:58.668Z,987.89
2017-11-04T00:55:58.673Z,987.88
2017-11-04T00:56:58.653Z,987.83
2017-11-04T00:57:58.647Z,987.83
2017-11-04T00:58:58.639Z,987.81
2017-11-04T00:59:58.636Z,987.79
2017-11-04T01:00:58.631Z,987.77
2017-11-04T01:01:58.633Z,987.82
2017-11-04T01:02:58.619Z,987.81
2017-11-04T01:03:58.620Z,987.9
2017-11-04T01:04:58.621Z,987.92
2017-11-04T01:05:58.604Z,987.89
2017-11-04T01:06:58.596Z,987.83
2017-11-04T01:07:58.590Z,987.77
2017-11-04T01:08:58.589Z,987.79
2017-11-04T01:09:58.577Z,987.76
2017-11-04T01:10:58.572Z,987.74
2017-11-04T01:11:58.587Z,987.76
2017-11-04T01:12:58.564Z,987.7
2017-11-04T01:13:58.555Z,987.72
2017-11-04T01:14:58.550Z,987.8
2017-11-04T01:15:58.559Z,987.82
2017-11-04T01:16:58.538Z,987.8
2017-11-04T01:17:58.532Z,987.73
2017-11-04T01:18:58.528Z,987.74
2017-11-04T01:19:58.521Z,987.75
2017-11-04T01:20:58.515Z,987.81
2017-11-04T01:21:58.513Z,987.79
2017-11-04T01:22:58.515Z,987.82
2017-11-04T01:23:58.500Z,987.87
2017-11-04T01:24:58.494Z,987.84
2017-11-04T01:25:58.488Z,987.84
2017-11-04T01:26:58.485Z,987.83
2017-11-04T01:27:58.479Z,987.86
2017-11-04T01:28:58.471Z,987.84
2017-11-04T01:29:58.477Z,987.83
2017-11-04T01:30:58.461Z,987.82
2017-11-04T01:31:58.466Z,987.8
2017-11-04T01:32:58.452Z,987.78
2017-11-04T01:33:58.455Z,987.77
2017-11-04T01:34:58.440Z,987.78
2017-11-04T01:35:58.434Z,987.75
2017-11-04T01:36:58.428Z,987.69
2017-11-04T01:37:58.422Z,987.65
2017-11-04T01:38:58.416Z,987.67
2017-11-04T01:39:58.411Z,987.63
2017-11-04T01:40:58.405Z,987.65
2017-11-04T01:41:58.400Z,987.61
2017-11-04T01:42:58.397Z,987.55
2017-11-04T01:43:58.404Z,987.6
2017-11-04T01:44:58.384Z,987.59
2017-11-04T01:45:58.378Z,987.56
2017-11-04T01:46:58.371Z,987.61
2017-11-04T01:47:58.369Z,987.59
2017-11-04T01:48:58.361Z,987.61
2017-11-04T01:49:58.356Z,987.61
2017-11-04T01:50:58.352Z,987.61
2017-11-04T01:51:58.345Z,987.6
2017-11-04T01:52:58.344Z,987.61
2017-11-04T01:53:58.344Z,987.55
2017-11-04T01:54:58.328Z,987.61
2017-11-04T01:55:58.325Z,987.57
2017-11-04T01:56:58.316Z,987.54
2017-11-04T01:57:58.312Z,987.55
2017-11-04T01:58:58.305Z,987.58
2017-11-04T01:59:58.300Z,987.54
2017-11-04T02:00:58.291Z,987.57
2017-11-04T02:01:58.288Z,987.58
2017-11-04T02:02:58.282Z,987.58
2017-11-04T02:03:58.277Z,987.54
2017-11-04T02:04:58.270Z,987.55
2017-11-04T02:05:58.264Z,987.53
2017-11-04T02:06:58.259Z,987.51
2017-11-04T02:07:58.254Z,987.47
2017-11-04T02:08:58.248Z,987.48
2017-11-04T02:09:58.245Z,987.49
2017-11-04T02:10:58.238Z,987.48
2017-11-04T02:11:58.233Z,987.48
2017-11-04T02:12:58.233Z,987.51
2017-11-04T02:13:58.221Z,987.46
2017-11-04T02:14:58.216Z,987.46
2017-11-04T02:15:58.209Z,987.43
2017-11-04T02:16:58.204Z,987.44
2017-11-04T02:17:58.200Z,987.42
2017-11-04T02:18:58.192Z,987.42
2017-11-04T02:19:58.193Z,987.46
2017-11-04T02:20:58.183Z,987.46
2017-11-04T02:21:58.178Z,987.41
2017-11-04T02:22:58.171Z,987.42
2017-11-04T02:23:58.166Z,987.43
2017-11-04T02:24:58.160Z,987.42
2017-11-04T02:25:58.155Z,987.38
2017-11-04T02:26:58.162Z,987.38
2017-11-04T02:27:58.143Z,987.36
2017-11-04T02:28:58.138Z,987.35
2017-11-04T02:29:58.133Z,987.35
2017-11-04T02:30:58.128Z,987.37
2017-11-04T02:31:58.127Z,987.35
2017-11-04T02:32:58.114Z,987.4
2017-11-04T02:33:58.109Z,987.38
2017-11-04T02:34:58.104Z,987.38
2017-11-04T02:35:58.101Z,987.34
2017-11-04T02:36:58.101Z,987.35
2017-11-04T02:37:58.088Z,987.34
2017-11-04T02:38:58.086Z,987.35
2017-11-04T02:39:58.086Z,987.33
2017-11-04T02:40:58.069Z,987.33
2017-11-04T02:41:58.067Z,987.34
2017-11-04T02:42:58.065Z,987.32
2017-11-04T02:43:58.053Z,987.3
2017-11-04T02:45:00.168Z,987.33
2017-11-04T02:45:58.044Z,987.29
2017-11-04T02:46:58.036Z,987.26
2017-11-04T02:47:58.030Z,987.32
2017-11-04T02:48:58.028Z,987.33
2017-11-04T02:49:58.019Z,987.31
2017-11-04T02:50:58.013Z,987.27
2017-11-04T02:51:58.008Z,987.31
2017-11-04T02:52:58.002Z,987.32
2017-11-04T02:53:57.998Z,987.36
2017-11-04T02:54:57.996Z,987.28
2017-11-04T02:55:57.990Z,987.36
2017-11-04T02:56:57.978Z,987.36
2017-11-04T02:57:57.973Z,987.34
2017-11-04T02:58:57.989Z,987.42
2017-11-04T02:59:57.963Z,987.31
2017-11-04T03:00:57.960Z,987.28
2017-11-04T03:01:57.951Z,987.26
2017-11-04T03:02:57.945Z,987.25
2017-11-04T03:03:57.938Z,987.21
2017-11-04T03:04:57.954Z,987.23
2017-11-04T03:05:57.929Z,987.21
2017-11-04T03:06:57.921Z,987.27
2017-11-04T03:07:57.921Z,987.25
2017-11-04T03:08:57.912Z,987.23
2017-11-04T03:09:57.906Z,987.18
2017-11-04T03:10:57.902Z,987.19
2017-11-04T03:11:57.895Z,987.15
2017-11-04T03:12:57.889Z,987.16
2017-11-04T03:13:57.883Z,987.18
2017-11-04T03:14:57.877Z,987.14
2017-11-04T03:15:57.875Z,987.21
2017-11-04T03:16:57.866Z,987.15
2017-11-04T03:17:57.859Z,987.12
2017-11-04T03:18:57.853Z,987.17
2017-11-04T03:19:57.852Z,987.14
2017-11-04T03:20:57.842Z,987.13
2017-11-04T03:21:57.838Z,987.14
2017-11-04T03:22:57.833Z,987.16
2017-11-04T03:23:57.826Z,987.15
2017-11-04T03:24:57.825Z,987.12
2017-11-04T03:25:57.813Z,987.12
2017-11-04T03:26:57.809Z,987.15
2017-11-04T03:27:57.804Z,987.15
2017-11-04T03:28:57.808Z,987.16
2017-11-04T03:29:57.791Z,987.16
2017-11-04T03:30:57.788Z,987.18
2017-11-04T03:31:57.780Z,987.16
2017-11-04T03:32:57.775Z,987.14
2017-11-04T03:33:57.770Z,987.15
2017-11-04T03:34:57.763Z,987.17
2017-11-04T03:35:57.759Z,987.18
2017-11-04T03:36:57.754Z,987.11
2017-11-04T03:37:57.747Z,987.12
2017-11-04T03:38:57.747Z,987.13
2017-11-04T03:39:57.741Z,987.11
2017-11-04T03:40:57.732Z,987.16
2017-11-04T03:41:57.724Z,987.16
2017-11-04T03:42:57.719Z,987.12
2017-11-04T03:43:57.715Z,987.1
2017-11-04T03:44:57.708Z,987.13
2017-11-04T03:45:57.702Z,987.13
2017-11-04T03:46:57.695Z,987.1
2017-11-04T03:47:57.691Z,987.11
2017-11-04T03:48:57.685Z,987.12
2017-11-04T03:49:57.682Z,987.14
2017-11-04T03:50:57.680Z,987.14
2017-11-04T03:51:57.667Z,987.11
2017-11-04T03:52:57.666Z,987.11
2017-11-04T03:53:57.655Z,987.1
2017-11-04T03:54:57.650Z,987.08
2017-11-04T03:55:57.647Z,987.06
2017-11-04T03:56:57.640Z,987.04
2017-11-04T03:57:57.636Z,987.06
2017-11-04T03:58:57.633Z,987.03
2017-11-04T03:59:57.628Z,987
2017-11-04T04:00:57.619Z,986.98
2017-11-04T04:01:57.610Z,987
2017-11-04T04:02:57.604Z,987.03
2017-11-04T04:03:57.599Z,986.96
2017-11-04T04:04:57.594Z,986.95
2017-11-04T04:05:57.586Z,987
2017-11-04T04:06:57.581Z,986.95
2017-11-04T04:07:57.577Z,986.93
2017-11-04T04:08:57.570Z,986.96
2017-11-04T04:09:57.562Z,986.91
2017-11-04T04:10:57.561Z,986.94
2017-11-04T04:11:57.551Z,986.96
2017-11-04T04:12:57.546Z,986.92
2017-11-04T04:13:57.539Z,986.95
2017-11-04T04:14:57.534Z,986.94
2017-11-04T04:15:57.527Z,986.94
2017-11-04T04:16:57.530Z,986.94
2017-11-04T04:17:57.519Z,986.98
2017-11-04T04:18:57.511Z,986.89
2017-11-04T04:19:57.504Z,986.9
2017-11-04T04:20:57.501Z,986.91
2017-11-04T04:21:57.493Z,986.91
2017-11-04T04:22:57.489Z,986.9
2017-11-04T04:23:57.480Z,986.87
2017-11-04T04:24:57.475Z,986.89
2017-11-04T04:25:57.471Z,986.88
2017-11-04T04:26:57.463Z,986.88
2017-11-04T04:27:57.457Z,986.87
2017-11-04T04:28:57.452Z,986.9
2017-11-04T04:29:57.446Z,986.92
2017-11-04T04:30:57.440Z,986.93
2017-11-04T04:31:57.434Z,986.89
2017-11-04T04:32:57.428Z,986.9
2017-11-04T04:33:57.428Z,986.84
2017-11-04T04:34:57.417Z,986.89
2017-11-04T04:35:57.411Z,986.9
2017-11-04T04:36:57.405Z,986.89
2017-11-04T04:37:57.399Z,986.87
2017-11-04T04:38:57.394Z,986.87
2017-11-04T04:39:57.387Z,986.85
2017-11-04T04:40:57.382Z,986.84
2017-11-04T04:41:57.375Z,986.81
2017-11-04T04:42:57.370Z,986.82
2017-11-04T04:43:57.367Z,986.83
2017-11-04T04:44:57.359Z,986.79
2017-11-04T04:45:57.553Z,986.83
2017-11-04T04:46:57.348Z,986.79
2017-11-04T04:47:57.342Z,986.79
2017-11-04T04:48:57.337Z,986.79
2017-11-04T04:49:57.328Z,986.8
2017-11-04T04:50:57.325Z,986.73
2017-11-04T04:51:57.320Z,986.72
2017-11-04T04:52:57.312Z,986.71
2017-11-04T04:53:57.308Z,986.72
2017-11-04T04:54:57.306Z,986.67
2017-11-04T04:55:57.300Z,986.7
2017-11-04T04:56:57.293Z,986.72
2017-11-04T04:57:57.294Z,986.7
2017-11-04T04:58:57.280Z,986.68
2017-11-04T04:59:57.273Z,986.67
2017-11-04T05:00:59.969Z,986.65
2017-11-04T05:01:57.262Z,986.62
2017-11-04T05:02:57.257Z,986.7
2017-11-04T05:03:57.250Z,986.67
2017-11-04T05:04:57.252Z,986.66
2017-11-04T05:05:57.248Z,986.65
2017-11-04T05:06:57.245Z,986.6
2017-11-04T05:07:57.236Z,986.59
2017-11-04T05:08:57.221Z,986.61
2017-11-04T05:09:57.217Z,986.63
2017-11-04T05:10:57.211Z,986.62
2017-11-04T05:11:57.210Z,986.65
2017-11-04T05:12:57.201Z,986.64
2017-11-04T05:13:57.195Z,986.65
2017-11-04T05:14:57.188Z,986.67
2017-11-04T05:15:57.187Z,986.64
2017-11-04T05:16:57.185Z,986.62
2017-11-04T05:17:57.171Z,986.7
2017-11-04T05:18:57.166Z,986.65
2017-11-04T05:19:57.161Z,986.71
2017-11-04T05:20:57.163Z,986.68
2017-11-04T05:21:57.148Z,986.65
2017-11-04T05:22:57.143Z,986.66
2017-11-04T05:23:57.139Z,986.64
2017-11-04T05:24:57.132Z,986.67
2017-11-04T05:25:57.132Z,986.62
2017-11-04T05:26:57.121Z,986.64
2017-11-04T05:27:57.119Z,986.61
2017-11-04T05:28:57.109Z,986.58
2017-11-04T05:29:57.102Z,986.59
2017-11-04T05:30:57.096Z,986.6
2017-11-04T05:31:57.092Z,986.57
2017-11-04T05:32:57.084Z,986.56
2017-11-04T05:33:57.079Z,986.61
2017-11-04T05:34:57.076Z,986.53
2017-11-04T05:35:57.067Z,986.58
2017-11-04T05:36:57.062Z,986.57
2017-11-04T05:37:57.073Z,986.59
2017-11-04T05:38:57.050Z,986.59
2017-11-04T05:39:57.043Z,986.56
2017-11-04T05:40:57.038Z,986.56
2017-11-04T05:41:57.044Z,986.56
2017-11-04T05:42:57.028Z,986.49
2017-11-04T05:43:57.020Z,986.54
2017-11-04T05:44:57.016Z,986.5
2017-11-04T05:45:57.015Z,986.55
2017-11-04T05:46:57.004Z,986.51
2017-11-04T05:47:56.999Z,986.55
2017-11-04T05:48:56.993Z,986.57
2017-11-04T05:49:56.987Z,986.59
2017-11-04T05:50:56.978Z,986.66
2017-11-04T05:51:56.978Z,986.66
2017-11-04T05:52:56.968Z,986.63
2017-11-04T05:53:56.962Z,986.68
2017-11-04T05:54:56.957Z,986.65
2017-11-04T05:55:56.954Z,986.7
2017-11-04T05:56:56.949Z,986.66
2017-11-04T05:57:56.939Z,986.66
2017-11-04T05:58:56.931Z,986.65
2017-11-04T05:59:56.925Z,986.66
2017-11-04T06:00:56.918Z,986.66
2017-11-04T06:01:58.969Z,986.69
2017-11-04T06:02:56.911Z,986.67
2017-11-04T06:03:56.901Z,986.7
2017-11-04T06:04:56.901Z,986.66
2017-11-04T06:05:56.891Z,986.63
2017-11-04T06:06:56.884Z,986.62
2017-11-04T06:07:56.878Z,986.63
2017-11-04T06:08:56.872Z,986.63
2017-11-04T06:09:56.867Z,986.64
2017-11-04T06:10:56.861Z,986.62
2017-11-04T06:11:56.855Z,986.61
2017-11-04T06:12:56.849Z,986.63
2017-11-04T06:13:56.844Z,986.59
2017-11-04T06:14:56.845Z,986.61
2017-11-04T06:15:56.832Z,986.58
2017-11-04T06:16:56.827Z,986.56
2017-11-04T06:17:56.820Z,986.55
2017-11-04T06:18:56.815Z,986.56
2017-11-04T06:19:56.810Z,986.57
2017-11-04T06:20:56.804Z,986.6
2017-11-04T06:21:56.800Z,986.57
2017-11-04T06:22:56.794Z,986.59
2017-11-04T06:23:56.786Z,986.57
2017-11-04T06:24:56.782Z,986.61
2017-11-04T06:25:56.776Z,986.6
2017-11-04T06:26:56.773Z,986.58
2017-11-04T06:27:56.764Z,986.58
2017-11-04T06:28:56.758Z,986.58
2017-11-04T06:29:56.752Z,986.59
2017-11-04T06:30:56.751Z,986.62
2017-11-04T06:31:56.740Z,986.63
2017-11-04T06:32:56.736Z,986.61
2017-11-04T06:33:56.730Z,986.66
2017-11-04T06:34:56.722Z,986.68
2017-11-04T06:35:56.717Z,986.68
2017-11-04T06:36:56.715Z,986.62
2017-11-04T06:37:56.707Z,986.65
2017-11-04T06:38:56.705Z,986.62
2017-11-04T06:39:56.700Z,986.59
2017-11-04T06:40:56.689Z,986.65
2017-11-04T06:41:56.684Z,986.61
2017-11-04T06:42:56.676Z,986.65
2017-11-04T06:43:56.675Z,986.65
2017-11-04T06:44:56.667Z,986.63
2017-11-04T06:45:56.666Z,986.65
2017-11-04T06:46:56.656Z,986.62
2017-11-04T06:47:56.649Z,986.65
2017-11-04T06:48:56.643Z,986.68
2017-11-04T06:49:56.636Z,986.64
2017-11-04T06:50:56.632Z,986.68
2017-11-04T06:51:56.628Z,986.67
2017-11-04T06:52:56.621Z,986.69
2017-11-04T06:53:56.615Z,986.66
2017-11-04T06:54:56.611Z,986.67
2017-11-04T06:55:56.604Z,986.7
2017-11-04T06:56:56.600Z,986.66
2017-11-04T06:57:56.598Z,986.7
2017-11-04T06:58:56.597Z,986.69
2017-11-04T06:59:56.583Z,986.68
2017-11-04T07:00:56.577Z,986.7
2017-11-04T07:01:56.591Z,986.71
2017-11-04T07:02:56.595Z,986.66
2017-11-04T07:03:56.559Z,986.69
2017-11-04T07:04:56.554Z,986.67
2017-11-04T07:05:56.557Z,986.7
2017-11-04T07:06:56.543Z,986.69
2017-11-04T07:07:56.551Z,986.71
2017-11-04T07:08:56.531Z,986.68
2017-11-04T07:09:56.526Z,986.73
2017-11-04T07:10:56.520Z,986.67
2017-11-04T07:11:56.522Z,986.63
2017-11-04T07:12:56.519Z,986.67
2017-11-04T07:13:56.505Z,986.63
2017-11-04T07:14:56.503Z,986.7
2017-11-04T07:15:56.502Z,986.69
2017-11-04T07:16:56.500Z,986.67
2017-11-04T07:17:56.787Z,986.69
2017-11-04T07:18:56.476Z,986.68
2017-11-04T07:19:56.472Z,986.62
2017-11-04T07:20:56.469Z,986.67
2017-11-04T07:21:56.467Z,986.62
2017-11-04T07:22:56.456Z,986.59
2017-11-04T07:23:56.450Z,986.57
2017-11-04T07:24:56.447Z,986.56
2017-11-04T07:25:56.450Z,986.6
2017-11-04T07:26:56.433Z,986.59
2017-11-04T07:27:56.428Z,986.6
2017-11-04T07:28:56.423Z,986.59
2017-11-04T07:29:56.421Z,986.59
2017-11-04T07:30:56.412Z,986.61
2017-11-04T07:31:56.407Z,986.61
2017-11-04T07:32:56.402Z,986.56
2017-11-04T07:33:56.397Z,986.57
2017-11-04T07:34:56.391Z,986.57
2017-11-04T07:35:56.387Z,986.59
2017-11-04T07:36:56.380Z,986.52
2017-11-04T07:37:56.375Z,986.53
2017-11-04T07:38:56.375Z,986.49
2017-11-04T07:39:56.366Z,986.55
2017-11-04T07:40:56.366Z,986.58
2017-11-04T07:41:56.356Z,986.5
2017-11-04T07:42:56.350Z,986.53
2017-11-04T07:43:56.346Z,986.53
2017-11-04T07:44:56.343Z,986.52
2017-11-04T07:45:56.336Z,986.54
2017-11-04T07:46:56.336Z,986.5
2017-11-04T07:47:59.181Z,986.52
2017-11-04T07:48:56.328Z,986.51
2017-11-04T07:49:56.315Z,986.52
2017-11-04T07:50:56.309Z,986.55
2017-11-04T07:51:56.306Z,986.6
2017-11-04T07:52:56.301Z,986.56
2017-11-04T07:53:56.298Z,986.6
2017-11-04T07:54:56.294Z,986.61
2017-11-04T07:55:56.287Z,986.63
2017-11-04T07:56:56.284Z,986.57
2017-11-04T07:57:56.277Z,986.56
2017-11-04T07:58:56.276Z,986.56
2017-11-04T07:59:56.272Z,986.55
2017-11-04T08:00:56.263Z,986.61
2017-11-04T08:01:56.259Z,986.58
2017-11-04T08:02:56.252Z,986.61
2017-11-04T08:03:56.251Z,986.58
2017-11-04T08:04:56.245Z,986.58
2017-11-04T08:05:56.241Z,986.62
2017-11-04T08:06:56.237Z,986.6
2017-11-04T08:07:56.231Z,986.64
2017-11-04T08:08:56.227Z,986.65
2017-11-04T08:09:56.223Z,986.64
2017-11-04T08:10:56.218Z,986.65
2017-11-04T08:11:56.213Z,986.62
2017-11-04T08:12:56.209Z,986.66
2017-11-04T08:13:56.203Z,986.62
2017-11-04T08:14:56.201Z,986.68
2017-11-04T08:15:56.196Z,986.7
2017-11-04T08:16:56.193Z,986.72
2017-11-04T08:17:56.185Z,986.69
2017-11-04T08:18:56.182Z,986.8
2017-11-04T08:19:56.178Z,986.73
2017-11-04T08:20:56.172Z,986.74
2017-11-04T08:21:56.166Z,986.74
2017-11-04T08:22:56.164Z,986.73
2017-11-04T08:23:56.158Z,986.74
2017-11-04T08:24:56.152Z,986.75
2017-11-04T08:25:56.153Z,986.7
2017-11-04T08:26:56.142Z,986.71
2017-11-04T08:27:56.140Z,986.7
2017-11-04T08:28:56.134Z,986.75
2017-11-04T08:29:56.130Z,986.71
2017-11-04T08:30:56.127Z,986.75
2017-11-04T08:31:56.128Z,986.66
2017-11-04T08:32:56.117Z,986.71
2017-11-04T08:33:56.114Z,986.68
2017-11-04T08:34:56.108Z,986.66
2017-11-04T08:35:56.121Z,986.66
2017-11-04T08:36:56.107Z,986.59
2017-11-04T08:37:56.100Z,986.56
2017-11-04T08:38:56.100Z,986.57
2017-11-04T08:39:56.092Z,986.58
2017-11-04T08:40:56.087Z,986.54
2017-11-04T08:41:56.079Z,986.58
2017-11-04T08:42:56.073Z,986.56
2017-11-04T08:43:56.068Z,986.56
2017-11-04T08:44:56.066Z,986.55
2017-11-04T08:45:56.067Z,986.55
2017-11-04T08:46:56.057Z,986.58
2017-11-04T08:47:56.061Z,986.56
2017-11-04T08:48:56.055Z,986.61
2017-11-04T08:49:56.054Z,986.63
2017-11-04T08:50:56.054Z,986.56
2017-11-04T08:51:56.039Z,986.58
2017-11-04T08:52:56.037Z,986.6
2017-11-04T08:53:56.032Z,986.57
2017-11-04T08:54:56.029Z,986.59
2017-11-04T08:55:56.028Z,986.56
2017-11-04T08:56:56.030Z,986.6
2017-11-04T08:57:56.018Z,986.55
2017-11-04T08:58:56.021Z,986.54
2017-11-04T08:59:56.014Z,986.56
2017-11-04T09:00:56.011Z,986.53
2017-11-04T09:01:56.008Z,986.55
2017-11-04T09:02:56.005Z,986.51
2017-11-04T09:03:56.002Z,986.49
2017-11-04T09:04:55.998Z,986.49
2017-11-04T09:05:55.998Z,986.48
2017-11-04T09:06:55.996Z,986.5
2017-11-04T09:07:55.991Z,986.54
2017-11-04T09:08:55.989Z,986.56
2017-11-04T09:09:55.985Z,986.57
2017-11-04T09:10:55.986Z,986.54
2017-11-04T09:11:55.978Z,986.56
2017-11-04T09:12:55.977Z,986.55
2017-11-04T09:13:55.975Z,986.5
2017-11-04T09:14:55.973Z,986.48
2017-11-04T09:15:55.972Z,986.48
2017-11-04T09:16:55.968Z,986.4
2017-11-04T09:17:55.965Z,986.41
2017-11-04T09:18:55.963Z,986.44
2017-11-04T09:19:55.962Z,986.45
2017-11-04T09:20:55.958Z,986.45
2017-11-04T09:21:55.955Z,986.43
2017-11-04T09:22:55.952Z,986.4
2017-11-04T09:23:55.951Z,986.43
2017-11-04T09:24:55.951Z,986.45
2017-11-04T09:25:55.953Z,986.5
2017-11-04T09:26:55.939Z,986.43
2017-11-04T09:27:55.939Z,986.47
2017-11-04T09:28:55.936Z,986.42
2017-11-04T09:29:55.933Z,986.42
2017-11-04T09:30:55.932Z,986.47
2017-11-04T09:31:55.926Z,986.46
2017-11-04T09:32:55.925Z,986.4
2017-11-04T09:33:55.922Z,986.51
2017-11-04T09:34:55.919Z,986.46
2017-11-04T09:35:55.917Z,986.47
2017-11-04T09:36:55.912Z,986.47
2017-11-04T09:37:55.936Z,986.43
2017-11-04T09:38:55.909Z,986.43
2017-11-04T09:39:55.909Z,986.45
2017-11-04T09:40:55.904Z,986.46
2017-11-04T09:41:55.902Z,986.44
2017-11-04T09:42:55.898Z,986.46
2017-11-04T09:43:55.897Z,986.48
2017-11-04T09:44:55.897Z,986.49
2017-11-04T09:45:55.890Z,986.48
2017-11-04T09:46:55.888Z,986.5
2017-11-04T09:47:55.884Z,986.46
2017-11-04T09:48:55.881Z,986.46
2017-11-04T09:49:56.139Z,986.47
2017-11-04T09:50:55.880Z,986.47
2017-11-04T09:51:55.876Z,986.48
2017-11-04T09:52:55.871Z,986.47
2017-11-04T09:53:55.869Z,986.5
2017-11-04T09:54:55.867Z,986.48
2017-11-04T09:55:55.864Z,986.47
2017-11-04T09:56:55.865Z,986.49
2017-11-04T09:57:55.861Z,986.48
2017-11-04T09:58:55.863Z,986.47
2017-11-04T09:59:55.855Z,986.43
2017-11-04T10:00:55.857Z,986.46
2017-11-04T10:01:55.851Z,986.43
2017-11-04T10:02:55.849Z,986.42
2017-11-04T10:03:55.845Z,986.44
2017-11-04T10:04:55.843Z,986.38
2017-11-04T10:05:55.846Z,986.45
2017-11-04T10:06:55.841Z,986.38
2017-11-04T10:07:55.835Z,986.35
2017-11-04T10:08:55.832Z,986.33
2017-11-04T10:09:55.831Z,986.42
2017-11-04T10:10:55.827Z,986.36
2017-11-04T10:11:55.826Z,986.32
2017-11-04T10:12:55.822Z,986.35
2017-11-04T10:13:55.819Z,986.35
2017-11-04T10:14:55.820Z,986.33
2017-11-04T10:15:55.814Z,986.35
2017-11-04T10:16:55.812Z,986.35
2017-11-04T10:17:55.811Z,986.35
2017-11-04T10:18:55.807Z,986.35
2017-11-04T10:19:58.259Z,986.31
2017-11-04T10:20:55.803Z,986.38
2017-11-04T10:21:55.800Z,986.38
2017-11-04T10:22:55.800Z,986.31
2017-11-04T10:23:55.799Z,986.28
2017-11-04T10:24:55.796Z,986.33
2017-11-04T10:25:55.793Z,986.33
2017-11-04T10:26:55.792Z,986.37
2017-11-04T10:27:55.797Z,986.3
2017-11-04T10:28:55.790Z,986.38
2017-11-04T10:29:55.787Z,986.34
2017-11-04T10:30:55.785Z,986.33
2017-11-04T10:31:55.783Z,986.31
2017-11-04T10:32:55.782Z,986.26
2017-11-04T10:33:55.780Z,986.31
2017-11-04T10:34:55.779Z,986.28
2017-11-04T10:35:55.780Z,986.28
2017-11-04T10:36:55.776Z,986.32
2017-11-04T10:37:55.774Z,986.28
2017-11-04T10:38:55.776Z,986.32
2017-11-04T10:39:55.773Z,986.25
2017-11-04T10:40:55.771Z,986.29
2017-11-04T10:41:55.773Z,986.26
2017-11-04T10:42:55.768Z,986.24
2017-11-04T10:43:55.769Z,986.22
2017-11-04T10:44:55.767Z,986.18
2017-11-04T10:45:55.765Z,986.16
2017-11-04T10:46:55.764Z,986.12
2017-11-04T10:47:55.765Z,986.15
2017-11-04T10:48:55.762Z,986.1
2017-11-04T10:49:55.763Z,986.09
2017-11-04T10:50:55.760Z,986.07
2017-11-04T10:51:55.759Z,986.04
2017-11-04T10:52:55.758Z,986.05
2017-11-04T10:53:55.759Z,986.04
2017-11-04T10:54:55.757Z,986.01
2017-11-04T10:55:55.756Z,986
2017-11-04T10:56:55.756Z,985.99
2017-11-04T10:57:55.755Z,985.99
2017-11-04T10:58:55.754Z,986.01
2017-11-04T10:59:55.753Z,986.02
2017-11-04T11:00:55.766Z,986.03
2017-11-04T11:01:55.760Z,986.03
2017-11-04T11:02:55.753Z,986.02
2017-11-04T11:03:55.755Z,985.98
2017-11-04T11:04:55.755Z,985.95
2017-11-04T11:05:55.751Z,985.93
2017-11-04T11:06:55.751Z,985.9
2017-11-04T11:07:55.778Z,985.96
2017-11-04T11:08:55.777Z,985.94
2017-11-04T11:09:55.759Z,985.88
2017-11-04T11:10:55.751Z,985.85
2017-11-04T11:11:55.751Z,985.86
2017-11-04T11:12:55.754Z,985.82
2017-11-04T11:13:55.753Z,985.81
2017-11-04T11:14:55.750Z,985.76
2017-11-04T11:15:55.751Z,985.73
2017-11-04T11:16:55.751Z,985.74
2017-11-04T11:17:55.750Z,985.72
2017-11-04T11:18:55.768Z,985.71
2017-11-04T11:19:55.750Z,985.72
2017-11-04T11:20:55.749Z,985.69
2017-11-04T11:21:55.751Z,985.62
2017-11-04T11:22:55.753Z,985.6
2017-11-04T11:23:55.751Z,985.64
2017-11-04T11:24:55.750Z,985.63
2017-11-04T11:25:55.749Z,985.64
2017-11-04T11:26:55.756Z,985.56
2017-11-04T11:27:55.762Z,985.58
2017-11-04T11:28:55.760Z,985.59
2017-11-04T11:29:55.752Z,985.58
2017-11-04T11:30:55.754Z,985.53
2017-11-04T11:31:55.753Z,985.57
2017-11-04T11:32:55.751Z,985.49
2017-11-04T11:33:55.754Z,985.46
2017-11-04T11:34:55.753Z,985.48
2017-11-04T11:35:55.754Z,985.45
2017-11-04T11:36:55.752Z,985.52
2017-11-04T11:37:55.754Z,985.53
2017-11-04T11:38:55.753Z,985.53
2017-11-04T11:39:55.757Z,985.51
2017-11-04T11:40:55.755Z,985.46
2017-11-04T11:41:55.757Z,985.5
2017-11-04T11:42:55.758Z,985.5
2017-11-04T11:43:55.758Z,985.5
2017-11-04T11:44:55.769Z,985.48
2017-11-04T11:45:55.757Z,985.5
2017-11-04T11:46:55.761Z,985.52
2017-11-04T11:47:55.755Z,985.49
2017-11-04T11:48:55.756Z,985.5
2017-11-04T11:49:55.756Z,985.49
2017-11-04T11:50:58.158Z,985.49
2017-11-04T11:51:55.756Z,985.5
2017-11-04T11:52:55.755Z,985.52
2017-11-04T11:53:55.755Z,985.53
2017-11-04T11:54:55.762Z,985.54
2017-11-04T11:55:55.761Z,985.5
2017-11-04T11:56:55.756Z,985.49
2017-11-04T11:57:55.756Z,985.49
2017-11-04T11:58:55.755Z,985.51
2017-11-04T11:59:55.754Z,985.46
2017-11-04T12:00:55.755Z,985.45
2017-11-04T12:01:55.761Z,985.38
2017-11-04T12:02:55.755Z,985.42
2017-11-04T12:03:55.756Z,985.35
2017-11-04T12:04:55.755Z,985.45
2017-11-04T12:05:55.755Z,985.35
2017-11-04T12:06:55.755Z,985.35
2017-11-04T12:07:55.758Z,985.32
2017-11-04T12:08:55.755Z,985.37
2017-11-04T12:09:55.756Z,985.36
2017-11-04T12:10:55.754Z,985.3
2017-11-04T12:11:55.756Z,985.29
2017-11-04T12:12:55.755Z,985.31
2017-11-04T12:13:55.763Z,985.35
2017-11-04T12:14:55.761Z,985.34
2017-11-04T12:15:55.756Z,985.35
2017-11-04T12:16:55.818Z,985.29
2017-11-04T12:17:55.762Z,985.29
2017-11-04T12:18:55.809Z,985.26
2017-11-04T12:19:55.757Z,985.27
2017-11-04T12:20:55.759Z,985.29
2017-11-04T12:21:55.760Z,985.33
2017-11-04T12:22:55.759Z,985.35
2017-11-04T12:23:55.761Z,985.33
2017-11-04T12:24:55.761Z,985.35
2017-11-04T12:25:55.765Z,985.34
2017-11-04T12:26:55.762Z,985.34
2017-11-04T12:27:55.764Z,985.32
2017-11-04T12:28:55.770Z,985.29
2017-11-04T12:29:55.775Z,985.28
2017-11-04T12:30:55.768Z,985.28
2017-11-04T12:31:55.782Z,985.23